sensor_id;sensor_type;location;lat;lon;timestamp;pressure;altitude;pressure_sealevel;temperature;humidity
8569;BME280;4322;51.104;-4.162;2022-12-18T16:13:01;101933.28;;;11.13;100.00
8569;BME280;4322;51.104;-4.162;2022-12-18T16:15:29;101934.50;;;11.28;100.00
8569;BME280;4322;51.104;-4.162;2022-12-18T16:17:57;101931.34;;;11.45;100.00
8569;BME280;4322;51.104;-4.162;2022-12-18T16:20:25;101943.78;;;11.63;100.00
8569;BME280;4322;51.104;-4.162;2022-12-18T16:22:53;101971.97;;;11.79;100.00
8569;BME280;4322;51.104;-4.162;2022-12-18T16:25:24;101990.69;;;11.90;100.00
8569;BME280;4322;51.104;-4.162;2022-12-18T16:27:53;101990.59;;;11.93;100.00
8569;BME280;4322;51.104;-4.162;2022-12-18T16:30:25;102030.47;;;11.99;100.00
8569;BME280;4322;51.104;-4.162;2022-12-18T16:33:04;102056.94;;;12.14;100.00
8569;BME280;4322;51.104;-4.162;2022-12-18T16:35:33;102075.06;;;12.19;100.00
8569;BME280;4322;51.104;-4.162;2022-12-18T16:38:03;102087.91;;;12.25;100.00
8569;BME280;4322;51.104;-4.162;2022-12-18T16:40:32;102095.41;;;12.34;100.00
8569;BME280;4322;51.104;-4.162;2022-12-18T16:43:20;102116.56;;;12.52;100.00
8569;BME280;4322;51.104;-4.162;2022-12-18T16:45:50;102106.72;;;12.59;100.00
8569;BME280;4322;51.104;-4.162;2022-12-18T16:48:18;102109.81;;;12.70;100.00
8569;BME280;4322;51.104;-4.162;2022-12-18T16:50:46;102092.84;;;12.80;100.00
8569;BME280;4322;51.104;-4.162;2022-12-18T16:53:15;102101.13;;;12.93;100.00
8569;BME280;4322;51.104;-4.162;2022-12-18T16:55:43;102100.06;;;12.97;100.00
8569;BME280;4322;51.104;-4.162;2022-12-18T16:58:11;102086.00;;;12.99;100.00
8569;BME280;4322;51.104;-4.162;2022-12-18T17:00:39;102075.31;;;13.05;100.00
8569;BME280;4322;51.104;-4.162;2022-12-18T17:03:09;102063.78;;;13.11;100.00
8569;BME280;4322;51.104;-4.162;2022-12-18T17:05:37;102060.63;;;13.25;100.00
8569;BME280;4322;51.104;-4.162;2022-12-18T17:08:05;102075.25;;;13.30;100.00
8569;BME280;4322;51.104;-4.162;2022-12-18T17:10:34;102062.09;;;13.32;100.00
8569;BME280;4322;51.104;-4.162;2022-12-18T17:13:02;102049.94;;;13.31;100.00
8569;BME280;4322;51.104;-4.162;2022-12-18T17:15:33;102048.84;;;13.36;100.00
8569;BME280;4322;51.104;-4.162;2022-12-18T17:18:02;102033.59;;;13.46;100.00
8569;BME280;4322;51.104;-4.162;2022-12-18T17:20:31;102036.88;;;13.51;100.00
8569;BME280;4322;51.104;-4.162;2022-12-18T17:22:59;102021.69;;;13.59;100.00
8569;BME280;4322;51.104;-4.162;2022-12-18T17:25:28;102010.19;;;13.63;100.00
8569;BME280;4322;51.104;-4.162;2022-12-18T17:27:56;102016.84;;;13.70;100.00
8569;BME280;4322;51.104;-4.162;2022-12-18T17:30:24;102017.06;;;13.86;100.00
8569;BME280;4322;51.104;-4.162;2022-12-18T17:32:52;102013.06;;;13.77;100.00
8569;BME280;4322;51.104;-4.162;2022-12-18T17:35:20;102013.00;;;13.79;100.00
8569;BME280;4322;51.104;-4.162;2022-12-18T17:37:50;102021.25;;;13.90;100.00
8569;BME280;4322;51.104;-4.162;2022-12-18T17:40:18;102025.84;;;14.05;100.00
8569;BME280;4322;51.104;-4.162;2022-12-18T17:42:46;102020.31;;;14.11;100.00
8569;BME280;4322;51.104;-4.162;2022-12-18T17:45:14;102011.47;;;14.13;100.00
8569;BME280;4322;51.104;-4.162;2022-12-18T17:47:42;102020.06;;;14.17;100.00
8569;BME280;4322;51.104;-4.162;2022-12-18T17:50:10;102026.94;;;14.19;100.00
8569;BME280;4322;51.104;-4.162;2022-12-18T17:52:38;102026.06;;;14.19;100.00
8569;BME280;4322;51.104;-4.162;2022-12-18T17:55:08;102034.47;;;14.27;100.00
8569;BME280;4322;51.104;-4.162;2022-12-18T17:57:36;102040.31;;;14.34;100.00
8569;BME280;4322;51.104;-4.162;2022-12-18T18:00:05;102048.19;;;14.34;100.00
8569;BME280;4322;51.104;-4.162;2022-12-18T18:02:34;102053.19;;;14.40;100.00
8569;BME280;4322;51.104;-4.162;2022-12-18T18:05:03;102053.88;;;14.43;100.00
8569;BME280;4322;51.104;-4.162;2022-12-18T18:07:31;102049.28;;;14.48;100.00
8569;BME280;4322;51.104;-4.162;2022-12-18T18:09:59;102056.09;;;14.52;100.00
8569;BME280;4322;51.104;-4.162;2022-12-18T18:12:29;102062.06;;;14.56;100.00
8569;BME280;4322;51.104;-4.162;2022-12-18T18:15:14;102060.09;;;14.61;100.00
8569;BME280;4322;51.104;-4.162;2022-12-18T18:17:42;102075.69;;;14.64;100.00
8569;BME280;4322;51.104;-4.162;2022-12-18T18:20:10;102073.84;;;14.66;100.00
8569;BME280;4322;51.104;-4.162;2022-12-18T18:22:47;102076.09;;;14.73;100.00
8569;BME280;4322;51.104;-4.162;2022-12-18T18:25:16;102085.78;;;14.73;100.00
8569;BME280;4322;51.104;-4.162;2022-12-18T18:27:46;102078.81;;;14.72;100.00
8569;BME280;4322;51.104;-4.162;2022-12-18T18:30:14;102082.81;;;14.80;100.00
8569;BME280;4322;51.104;-4.162;2022-12-18T18:32:42;102080.88;;;14.84;100.00
8569;BME280;4322;51.104;-4.162;2022-12-18T18:35:10;102083.22;;;14.90;100.00
8569;BME280;4322;51.104;-4.162;2022-12-18T18:37:58;102086.47;;;14.95;100.00
8569;BME280;4322;51.104;-4.162;2022-12-18T18:40:26;102101.72;;;15.06;100.00
8569;BME280;4322;51.104;-4.162;2022-12-18T18:42:56;102098.78;;;15.13;100.00
8569;BME280;4322;51.104;-4.162;2022-12-18T18:45:24;102100.53;;;15.13;100.00
8569;BME280;4322;51.104;-4.162;2022-12-18T18:47:52;102103.09;;;15.14;100.00
8569;BME280;4322;51.104;-4.162;2022-12-18T18:50:20;102096.19;;;15.12;100.00
8569;BME280;4322;51.104;-4.162;2022-12-18T18:52:48;102102.22;;;15.14;100.00
8569;BME280;4322;51.104;-4.162;2022-12-18T18:55:16;102090.41;;;15.05;100.00
8569;BME280;4322;51.104;-4.162;2022-12-18T18:57:51;102114.66;;;15.10;100.00
8569;BME280;4322;51.104;-4.162;2022-12-18T19:00:21;102108.78;;;15.05;100.00
8569;BME280;4322;51.104;-4.162;2022-12-18T19:02:49;102124.31;;;15.10;100.00
8569;BME280;4322;51.104;-4.162;2022-12-18T19:05:23;102131.34;;;15.09;100.00
8569;BME280;4322;51.104;-4.162;2022-12-18T19:07:51;102120.84;;;15.09;100.00
8569;BME280;4322;51.104;-4.162;2022-12-18T19:10:19;102140.66;;;15.16;100.00
8569;BME280;4322;51.104;-4.162;2022-12-18T19:12:47;102128.28;;;15.18;100.00
8569;BME280;4322;51.104;-4.162;2022-12-18T19:15:34;102133.75;;;15.14;100.00
8569;BME280;4322;51.104;-4.162;2022-12-18T19:18:03;102135.44;;;15.15;100.00
8569;BME280;4322;51.104;-4.162;2022-12-18T19:20:31;102137.03;;;15.19;100.00
8569;BME280;4322;51.104;-4.162;2022-12-18T19:22:59;102160.16;;;15.29;100.00
8569;BME280;4322;51.104;-4.162;2022-12-18T19:25:27;102158.19;;;15.34;100.00
8569;BME280;4322;51.104;-4.162;2022-12-18T19:28:06;102139.22;;;15.28;100.00
8569;BME280;4322;51.104;-4.162;2022-12-18T19:30:50;102155.47;;;15.36;100.00
8569;BME280;4322;51.104;-4.162;2022-12-18T19:33:24;102164.97;;;15.38;100.00
8569;BME280;4322;51.104;-4.162;2022-12-18T19:36:10;102166.47;;;15.44;100.00
8569;BME280;4322;51.104;-4.162;2022-12-18T19:38:39;102160.03;;;15.32;100.00
8569;BME280;4322;51.104;-4.162;2022-12-18T19:41:11;102165.56;;;15.45;100.00
8569;BME280;4322;51.104;-4.162;2022-12-18T19:43:40;102171.56;;;15.48;100.00
8569;BME280;4322;51.104;-4.162;2022-12-18T19:46:11;102157.19;;;15.37;100.00
8569;BME280;4322;51.104;-4.162;2022-12-18T19:48:41;102161.97;;;15.47;100.00
8569;BME280;4322;51.104;-4.162;2022-12-18T19:51:12;102162.38;;;15.57;100.00
8569;BME280;4322;51.104;-4.162;2022-12-18T19:53:40;102154.19;;;15.63;100.00
8569;BME280;4322;51.104;-4.162;2022-12-18T19:56:11;102147.94;;;15.66;100.00
8569;BME280;4322;51.104;-4.162;2022-12-18T19:58:39;102160.94;;;15.69;100.00
8569;BME280;4322;51.104;-4.162;2022-12-18T20:01:10;102149.03;;;15.62;100.00
8569;BME280;4322;51.104;-4.162;2022-12-18T20:03:42;102153.19;;;15.66;100.00
8569;BME280;4322;51.104;-4.162;2022-12-18T20:06:23;102160.72;;;15.73;100.00
8569;BME280;4322;51.104;-4.162;2022-12-18T20:08:53;102159.88;;;15.73;100.00
8569;BME280;4322;51.104;-4.162;2022-12-18T20:11:27;102167.81;;;15.71;100.00
8569;BME280;4322;51.104;-4.162;2022-12-18T20:13:55;102172.72;;;15.79;100.00
8569;BME280;4322;51.104;-4.162;2022-12-18T20:16:25;102171.78;;;15.80;100.00
8569;BME280;4322;51.104;-4.162;2022-12-18T20:18:53;102171.50;;;15.86;100.00
8569;BME280;4322;51.104;-4.162;2022-12-18T20:21:21;102176.66;;;15.87;100.00
8569;BME280;4322;51.104;-4.162;2022-12-18T20:23:49;102172.88;;;15.93;100.00
8569;BME280;4322;51.104;-4.162;2022-12-18T20:26:17;102168.47;;;15.93;100.00
8569;BME280;4322;51.104;-4.162;2022-12-18T20:28:45;102165.78;;;15.95;100.00
8569;BME280;4322;51.104;-4.162;2022-12-18T20:31:13;102173.75;;;15.93;100.00
8569;BME280;4322;51.104;-4.162;2022-12-18T20:33:43;102158.69;;;15.97;100.00
8569;BME280;4322;51.104;-4.162;2022-12-18T20:36:16;102167.19;;;16.02;100.00
8569;BME280;4322;51.104;-4.162;2022-12-18T20:38:47;102160.91;;;16.04;100.00
8569;BME280;4322;51.104;-4.162;2022-12-18T20:41:19;102160.84;;;16.06;100.00
8569;BME280;4322;51.104;-4.162;2022-12-18T20:43:48;102151.97;;;16.08;100.00
8569;BME280;4322;51.104;-4.162;2022-12-18T20:46:16;102148.31;;;16.11;100.00
8569;BME280;4322;51.104;-4.162;2022-12-18T20:48:46;102135.22;;;16.09;100.00
8569;BME280;4322;51.104;-4.162;2022-12-18T20:51:16;102137.00;;;16.09;100.00
8569;BME280;4322;51.104;-4.162;2022-12-18T20:53:45;102138.63;;;16.12;100.00
8569;BME280;4322;51.104;-4.162;2022-12-18T20:56:15;102133.31;;;16.13;100.00
8569;BME280;4322;51.104;-4.162;2022-12-18T20:58:47;102130.91;;;16.08;100.00
8569;BME280;4322;51.104;-4.162;2022-12-18T21:01:21;102140.09;;;16.17;100.00
8569;BME280;4322;51.104;-4.162;2022-12-18T21:03:51;102139.19;;;16.18;100.00
8569;BME280;4322;51.104;-4.162;2022-12-18T21:06:21;102133.31;;;16.13;100.00
8569;BME280;4322;51.104;-4.162;2022-12-18T21:08:50;102128.91;;;16.14;100.00
8569;BME280;4322;51.104;-4.162;2022-12-18T21:11:26;102136.72;;;16.15;100.00
8569;BME280;4322;51.104;-4.162;2022-12-18T21:14:15;102129.75;;;16.14;100.00
8569;BME280;4322;51.104;-4.162;2022-12-18T21:16:45;102129.75;;;16.14;100.00
8569;BME280;4322;51.104;-4.162;2022-12-18T21:19:17;102120.06;;;16.15;100.00
8569;BME280;4322;51.104;-4.162;2022-12-18T21:21:46;102118.38;;;16.14;100.00
8569;BME280;4322;51.104;-4.162;2022-12-18T21:24:15;102116.06;;;16.07;100.00
8569;BME280;4322;51.104;-4.162;2022-12-18T21:26:43;102130.44;;;16.18;100.00
8569;BME280;4322;51.104;-4.162;2022-12-18T21:29:14;102140.09;;;16.17;100.00
8569;BME280;4322;51.104;-4.162;2022-12-18T21:31:43;102143.84;;;16.13;100.00
8569;BME280;4322;51.104;-4.162;2022-12-18T21:34:15;102147.38;;;16.12;100.00
8569;BME280;4322;51.104;-4.162;2022-12-18T21:36:44;102152.63;;;16.12;100.00
8569;BME280;4322;51.104;-4.162;2022-12-18T21:39:13;102159.47;;;16.16;100.00
8569;BME280;4322;51.104;-4.162;2022-12-18T21:41:42;102161.09;;;16.19;100.00
8569;BME280;4322;51.104;-4.162;2022-12-18T21:44:29;102169.97;;;16.16;100.00
8569;BME280;4322;51.104;-4.162;2022-12-18T21:47:07;102173.53;;;16.15;100.00
8569;BME280;4322;51.104;-4.162;2022-12-18T21:49:51;102166.50;;;16.16;100.00
8569;BME280;4322;51.104;-4.162;2022-12-18T21:52:20;102178.19;;;16.10;100.00
8569;BME280;4322;51.104;-4.162;2022-12-18T21:54:57;102171.06;;;16.12;100.00
8569;BME280;4322;51.104;-4.162;2022-12-18T21:57:33;102190.19;;;16.16;100.00
8569;BME280;4322;51.104;-4.162;2022-12-18T22:00:02;102196.44;;;16.13;100.00
8569;BME280;4322;51.104;-4.162;2022-12-18T22:02:31;102169.13;;;16.16;100.00
8569;BME280;4322;51.104;-4.162;2022-12-18T22:05:01;102172.63;;;16.16;100.00
8569;BME280;4322;51.104;-4.162;2022-12-18T22:07:29;102165.03;;;16.10;100.00
8569;BME280;4322;51.104;-4.162;2022-12-18T22:09:58;102183.44;;;16.10;100.00
